sensor_id;sensor_type;location;lat;lon;timestamp;pressure;altitude;pressure_sealevel;temperature;humidity
163;BME280;3946;48.958;8.284;2023-04-03T00:02:02;101285.25;;;5.27;74.53
163;BME280;3946;48.958;8.284;2023-04-03T00:04:48;101268.94;;;5.28;74.15
163;BME280;3946;48.958;8.284;2023-04-03T00:07:33;101272.31;;;5.30;74.04
163;BME280;3946;48.958;8.284;2023-04-03T00:10:18;101282.75;;;5.24;74.88
163;BME280;3946;48.958;8.284;2023-04-03T00:13:03;101286.09;;;5.27;75.04
163;BME280;3946;48.958;8.284;2023-04-03T00:15:48;101276.81;;;5.22;74.35
163;BME280;3946;48.958;8.284;2023-04-03T00:18:35;101282.66;;;5.27;73.98
163;BME280;3946;48.958;8.284;2023-04-03T00:21:20;101289.66;;;5.22;74.89
163;BME280;3946;48.958;8.284;2023-04-03T00:24:05;101285.31;;;5.24;74.40
163;BME280;3946;48.958;8.284;2023-04-03T00:26:50;101297.47;;;5.19;75.50
163;BME280;3946;48.958;8.284;2023-04-03T00:29:35;101276.72;;;5.25;74.95
163;BME280;3946;48.958;8.284;2023-04-03T00:32:20;101289.59;;;5.23;74.80
163;BME280;3946;48.958;8.284;2023-04-03T00:35:07;101289.50;;;5.28;74.69
163;BME280;3946;48.958;8.284;2023-04-03T00:37:53;101294.78;;;5.22;74.73
163;BME280;3946;48.958;8.284;2023-04-03T00:40:39;101307.78;;;5.17;75.76
163;BME280;3946;48.958;8.284;2023-04-03T00:43:26;101299.59;;;5.36;75.07
163;BME280;3946;48.958;8.284;2023-04-03T00:46:11;101296.47;;;5.23;74.57
163;BME280;3946;48.958;8.284;2023-04-03T00:48:55;101293.78;;;5.27;74.68
163;BME280;3946;48.958;8.284;2023-04-03T00:51:42;101308.34;;;5.27;75.08
163;BME280;3946;48.958;8.284;2023-04-03T00:54:27;101313.59;;;5.22;75.67
163;BME280;3946;48.958;8.284;2023-04-03T00:57:12;101317.84;;;5.25;75.44
163;BME280;3946;48.958;8.284;2023-04-03T00:59:59;101320.75;;;5.11;76.56
163;BME280;3946;48.958;8.284;2023-04-03T01:02:45;101334.25;;;5.19;76.58
163;BME280;3946;48.958;8.284;2023-04-03T01:05:32;101312.97;;;5.14;76.02
163;BME280;3946;48.958;8.284;2023-04-03T01:08:19;101294.88;;;5.19;75.51
163;BME280;3946;48.958;8.284;2023-04-03T01:11:04;101308.47;;;5.22;75.68
163;BME280;3946;48.958;8.284;2023-04-03T01:13:49;101314.63;;;5.17;76.31
163;BME280;3946;48.958;8.284;2023-04-03T01:16:34;101293.03;;;5.24;75.53
163;BME280;3946;48.958;8.284;2023-04-03T01:19:19;101302.78;;;5.11;76.25
163;BME280;3946;48.958;8.284;2023-04-03T01:22:10;101314.72;;;5.14;76.19
163;BME280;3946;48.958;8.284;2023-04-03T01:25:02;101308.91;;;5.06;76.05
163;BME280;3946;48.958;8.284;2023-04-03T01:27:47;101313.81;;;5.15;76.21
163;BME280;3946;48.958;8.284;2023-04-03T01:30:33;101306.19;;;5.12;75.85
163;BME280;3946;48.958;8.284;2023-04-03T01:33:20;101314.75;;;5.12;76.22
163;BME280;3946;48.958;8.284;2023-04-03T01:36:06;101306.13;;;5.15;75.34
163;BME280;3946;48.958;8.284;2023-04-03T01:38:52;101302.97;;;5.04;75.43
163;BME280;3946;48.958;8.284;2023-04-03T01:41:37;101309.03;;;5.01;75.95
163;BME280;3946;48.958;8.284;2023-04-03T01:44:30;101314.19;;;5.01;75.66
163;BME280;3946;48.958;8.284;2023-04-03T01:47:15;101310.06;;;4.94;75.37
163;BME280;3946;48.958;8.284;2023-04-03T01:50:02;101318.94;;;4.82;76.04
163;BME280;3946;48.958;8.284;2023-04-03T01:52:50;101326.84;;;4.73;76.34
163;BME280;3946;48.958;8.284;2023-04-03T01:55:35;101326.00;;;4.73;76.44
163;BME280;3946;48.958;8.284;2023-04-03T01:58:20;101318.41;;;4.68;76.32
163;BME280;3946;48.958;8.284;2023-04-03T02:01:07;101333.13;;;4.60;76.55
163;BME280;3946;48.958;8.284;2023-04-03T02:03:52;101318.78;;;4.53;76.50
163;BME280;3946;48.958;8.284;2023-04-03T02:06:38;101339.47;;;4.45;77.09
163;BME280;3946;48.958;8.284;2023-04-03T02:09:24;101332.69;;;4.43;77.01
163;BME280;3946;48.958;8.284;2023-04-03T02:12:10;101356.72;;;4.39;78.28
163;BME280;3946;48.958;8.284;2023-04-03T02:14:55;101354.13;;;4.39;77.99
163;BME280;3946;48.958;8.284;2023-04-03T02:17:40;101352.53;;;4.35;78.43
163;BME280;3946;48.958;8.284;2023-04-03T02:20:25;101363.72;;;4.32;78.90
163;BME280;3946;48.958;8.284;2023-04-03T02:23:11;101363.88;;;4.25;79.41
163;BME280;3946;48.958;8.284;2023-04-03T02:26:02;101353.69;;;4.21;79.07
163;BME280;3946;48.958;8.284;2023-04-03T02:28:47;101363.16;;;4.18;79.76
163;BME280;3946;48.958;8.284;2023-04-03T02:31:32;101358.06;;;4.16;79.55
163;BME280;3946;48.958;8.284;2023-04-03T02:34:19;101353.91;;;4.11;79.58
163;BME280;3946;48.958;8.284;2023-04-03T02:37:04;101355.75;;;4.06;80.04
163;BME280;3946;48.958;8.284;2023-04-03T02:39:51;101357.53;;;4.01;80.08
163;BME280;3946;48.958;8.284;2023-04-03T02:42:37;101354.06;;;4.03;80.34
163;BME280;3946;48.958;8.284;2023-04-03T02:45:23;101351.59;;;3.99;80.26
163;BME280;3946;48.958;8.284;2023-04-03T02:48:08;101350.78;;;3.97;79.98
163;BME280;3946;48.958;8.284;2023-04-03T02:50:53;101346.53;;;3.96;79.96
163;BME280;3946;48.958;8.284;2023-04-03T02:53:38;101352.72;;;3.85;80.56
163;BME280;3946;48.958;8.284;2023-04-03T02:56:31;101356.22;;;3.81;80.82
163;BME280;3946;48.958;8.284;2023-04-03T02:59:16;101351.97;;;3.80;80.83
163;BME280;3946;48.958;8.284;2023-04-03T03:02:01;101353.03;;;3.70;81.00
163;BME280;3946;48.958;8.284;2023-04-03T03:04:47;101355.69;;;3.66;81.10
163;BME280;3946;48.958;8.284;2023-04-03T03:07:32;101360.78;;;3.66;81.70
163;BME280;3946;48.958;8.284;2023-04-03T03:10:17;101354.97;;;3.58;81.79
163;BME280;3946;48.958;8.284;2023-04-03T03:13:04;101354.97;;;3.58;81.53
163;BME280;3946;48.958;8.284;2023-04-03T03:15:49;101354.09;;;3.59;81.78
163;BME280;3946;48.958;8.284;2023-04-03T03:18:35;101370.47;;;3.50;82.31
163;BME280;3946;48.958;8.284;2023-04-03T03:21:21;101370.47;;;3.50;82.81
163;BME280;3946;48.958;8.284;2023-04-03T03:24:06;101360.34;;;3.44;82.63
163;BME280;3946;48.958;8.284;2023-04-03T03:26:51;101355.06;;;3.53;82.41
163;BME280;3946;48.958;8.284;2023-04-03T03:29:38;101355.38;;;3.36;82.50
163;BME280;3946;48.958;8.284;2023-04-03T03:32:23;101357.03;;;3.39;82.75
163;BME280;3946;48.958;8.284;2023-04-03T03:35:08;101352.78;;;3.38;82.54
163;BME280;3946;48.958;8.284;2023-04-03T03:37:53;101358.81;;;3.35;82.92
163;BME280;3946;48.958;8.284;2023-04-03T03:40:38;101354.66;;;3.28;82.63
163;BME280;3946;48.958;8.284;2023-04-03T03:43:24;101361.59;;;3.23;83.16
163;BME280;3946;48.958;8.284;2023-04-03T03:46:12;101354.84;;;3.17;83.43
163;BME280;3946;48.958;8.284;2023-04-03T03:48:57;101359.06;;;3.20;83.84
163;BME280;3946;48.958;8.284;2023-04-03T03:51:42;101353.94;;;3.20;83.56
163;BME280;3946;48.958;8.284;2023-04-03T03:54:28;101348.00;;;3.18;83.70
163;BME280;3946;48.958;8.284;2023-04-03T03:57:13;101359.13;;;3.15;83.98
163;BME280;3946;48.958;8.284;2023-04-03T03:59:59;101360.84;;;3.16;83.60
163;BME280;3946;48.958;8.284;2023-04-03T04:02:46;101361.66;;;3.19;83.46
163;BME280;3946;48.958;8.284;2023-04-03T04:05:35;101366.84;;;3.14;84.04
163;BME280;3946;48.958;8.284;2023-04-03T04:08:21;101367.66;;;3.16;84.15
163;BME280;3946;48.958;8.284;2023-04-03T04:11:06;101365.09;;;3.16;83.93
163;BME280;3946;48.958;8.284;2023-04-03T04:13:52;101364.16;;;3.23;84.21
163;BME280;3946;48.958;8.284;2023-04-03T04:16:41;101371.13;;;3.13;84.45
163;BME280;3946;48.958;8.284;2023-04-03T04:19:33;101359.97;;;3.17;84.62
163;BME280;3946;48.958;8.284;2023-04-03T04:22:18;101368.41;;;3.24;84.38
163;BME280;3946;48.958;8.284;2023-04-03T04:25:04;101371.69;;;3.29;84.10
163;BME280;3946;48.958;8.284;2023-04-03T04:27:49;101370.81;;;3.32;84.51
163;BME280;3946;48.958;8.284;2023-04-03T04:30:35;101370.88;;;3.27;84.35
163;BME280;3946;48.958;8.284;2023-04-03T04:33:21;101368.28;;;3.29;84.09
163;BME280;3946;48.958;8.284;2023-04-03T04:36:08;101371.56;;;3.38;84.37
163;BME280;3946;48.958;8.284;2023-04-03T04:38:53;101366.34;;;3.41;83.96
163;BME280;3946;48.958;8.284;2023-04-03T04:41:40;101371.38;;;3.47;83.84
163;BME280;3946;48.958;8.284;2023-04-03T04:44:26;101370.47;;;3.50;83.84
163;BME280;3946;48.958;8.284;2023-04-03T04:47:12;101369.56;;;3.54;83.87
163;BME280;3946;48.958;8.284;2023-04-03T04:49:57;101362.84;;;3.47;83.91
163;BME280;3946;48.958;8.284;2023-04-03T04:52:44;101362.75;;;3.53;83.48
163;BME280;3946;48.958;8.284;2023-04-03T04:55:30;101363.53;;;3.57;83.99
163;BME280;3946;48.958;8.284;2023-04-03T04:58:15;101361.13;;;3.49;83.64
163;BME280;3946;48.958;8.284;2023-04-03T05:01:00;101365.28;;;3.55;83.42
163;BME280;3946;48.958;8.284;2023-04-03T05:03:46;101371.34;;;3.50;83.56
163;BME280;3946;48.958;8.284;2023-04-03T05:06:31;101380.84;;;3.42;84.04
163;BME280;3946;48.958;8.284;2023-04-03T05:09:21;101372.19;;;3.49;83.55
163;BME280;3946;48.958;8.284;2023-04-03T05:12:08;101371.34;;;3.49;83.29
163;BME280;3946;48.958;8.284;2023-04-03T05:14:59;101367.09;;;3.48;83.79
163;BME280;3946;48.958;8.284;2023-04-03T05:17:46;101371.38;;;3.47;83.20
163;BME280;3946;48.958;8.284;2023-04-03T05:20:32;101374.75;;;3.49;82.83
163;BME280;3946;48.958;8.284;2023-04-03T05:23:19;101373.03;;;3.51;81.84
163;BME280;3946;48.958;8.284;2023-04-03T05:26:06;101382.38;;;3.54;82.01
163;BME280;3946;48.958;8.284;2023-04-03T05:28:53;101383.09;;;3.61;81.97
163;BME280;3946;48.958;8.284;2023-04-03T05:31:38;101382.25;;;3.60;81.75
163;BME280;3946;48.958;8.284;2023-04-03T05:34:25;101382.28;;;3.59;81.42
163;BME280;3946;48.958;8.284;2023-04-03T05:37:13;101382.38;;;3.54;81.39
163;BME280;3946;48.958;8.284;2023-04-03T05:39:58;101388.41;;;3.50;81.41
163;BME280;3946;48.958;8.284;2023-04-03T05:42:46;101397.03;;;3.46;81.34
163;BME280;3946;48.958;8.284;2023-04-03T05:45:32;101387.66;;;3.45;80.73
163;BME280;3946;48.958;8.284;2023-04-03T05:48:18;101389.50;;;3.37;80.37
163;BME280;3946;48.958;8.284;2023-04-03T05:51:03;101386.09;;;3.36;80.45
163;BME280;3946;48.958;8.284;2023-04-03T05:53:48;101394.63;;;3.37;80.87
163;BME280;3946;48.958;8.284;2023-04-03T05:56:39;101389.38;;;3.44;79.94
163;BME280;3946;48.958;8.284;2023-04-03T05:59:26;101395.44;;;3.40;79.83
163;BME280;3946;48.958;8.284;2023-04-03T06:02:15;101397.78;;;3.53;80.01
163;BME280;3946;48.958;8.284;2023-04-03T06:05:01;101389.94;;;3.59;79.87
163;BME280;3946;48.958;8.284;2023-04-03T06:07:46;101400.75;;;3.74;79.57
163;BME280;3946;48.958;8.284;2023-04-03T06:10:33;101391.22;;;3.82;79.15
163;BME280;3946;48.958;8.284;2023-04-03T06:13:18;101387.63;;;3.91;78.99
163;BME280;3946;48.958;8.284;2023-04-03T06:16:06;101390.41;;;3.80;79.16
163;BME280;3946;48.958;8.284;2023-04-03T06:18:53;101393.72;;;3.87;79.20
163;BME280;3946;48.958;8.284;2023-04-03T06:21:38;101390.13;;;3.94;78.57
163;BME280;3946;48.958;8.284;2023-04-03T06:24:24;101396.19;;;3.90;79.01
163;BME280;3946;48.958;8.284;2023-04-03T06:27:10;101397.88;;;3.91;78.92
163;BME280;3946;48.958;8.284;2023-04-03T06:29:56;101391.91;;;3.91;78.69
163;BME280;3946;48.958;8.284;2023-04-03T06:32:42;101399.41;;;4.01;78.54
163;BME280;3946;48.958;8.284;2023-04-03T06:35:27;101394.03;;;4.13;78.41
163;BME280;3946;48.958;8.284;2023-04-03T06:38:14;101394.50;;;4.32;78.05
163;BME280;3946;48.958;8.284;2023-04-03T06:40:59;101400.22;;;4.43;78.23
163;BME280;3946;48.958;8.284;2023-04-03T06:43:44;101399.03;;;4.60;77.57
163;BME280;3946;48.958;8.284;2023-04-03T06:46:29;101374.13;;;5.00;76.04
163;BME280;3946;48.958;8.284;2023-04-03T06:49:17;101375.78;;;5.03;75.44
163;BME280;3946;48.958;8.284;2023-04-03T06:52:03;101367.66;;;5.19;75.34
163;BME280;3946;48.958;8.284;2023-04-03T06:54:48;101356.53;;;5.19;74.91
163;BME280;3946;48.958;8.284;2023-04-03T06:57:35;101375.53;;;5.12;75.50
163;BME280;3946;48.958;8.284;2023-04-03T07:00:20;101378.25;;;5.06;75.18
163;BME280;3946;48.958;8.284;2023-04-03T07:03:06;101376.94;;;4.89;75.15
163;BME280;3946;48.958;8.284;2023-04-03T07:05:52;101399.78;;;4.65;76.39
163;BME280;3946;48.958;8.284;2023-04-03T07:08:37;101392.13;;;4.99;75.82
163;BME280;3946;48.958;8.284;2023-04-03T07:11:23;101386.81;;;5.06;76.09
163;BME280;3946;48.958;8.284;2023-04-03T07:14:08;101370.81;;;5.29;74.47
163;BME280;3946;48.958;8.284;2023-04-03T07:16:53;101379.94;;;5.41;75.19
163;BME280;3946;48.958;8.284;2023-04-03T07:19:38;101375.94;;;5.63;74.74
163;BME280;3946;48.958;8.284;2023-04-03T07:22:25;101390.88;;;5.49;74.88
163;BME280;3946;48.958;8.284;2023-04-03T07:25:10;101395.78;;;5.24;75.16
163;BME280;3946;48.958;8.284;2023-04-03T07:27:55;101400.50;;;5.41;75.40
163;BME280;3946;48.958;8.284;2023-04-03T07:30:42;101409.81;;;5.45;75.16
163;BME280;3946;48.958;8.284;2023-04-03T07:33:27;101386.22;;;5.31;74.67
163;BME280;3946;48.958;8.284;2023-04-03T07:36:14;101408.00;;;5.16;75.75
163;BME280;3946;48.958;8.284;2023-04-03T07:39:01;101425.56;;;5.33;76.57
163;BME280;3946;48.958;8.284;2023-04-03T07:41:46;101421.31;;;5.32;75.77
163;BME280;3946;48.958;8.284;2023-04-03T07:44:31;101421.47;;;5.24;75.70
163;BME280;3946;48.958;8.284;2023-04-03T07:47:16;101432.63;;;5.57;76.39
163;BME280;3946;48.958;8.284;2023-04-03T07:50:02;101411.63;;;5.74;75.14
163;BME280;3946;48.958;8.284;2023-04-03T07:52:47;101404.56;;;5.82;74.60
163;BME280;3946;48.958;8.284;2023-04-03T07:55:34;101403.88;;;5.75;74.31
163;BME280;3946;48.958;8.284;2023-04-03T07:58:24;101406.56;;;5.71;74.68
163;BME280;3946;48.958;8.284;2023-04-03T08:01:09;101411.94;;;5.95;74.06
163;BME280;3946;48.958;8.284;2023-04-03T08:03:54;101394.50;;;6.05;72.43
163;BME280;3946;48.958;8.284;2023-04-03T08:06:39;101385.53;;;6.18;72.78
163;BME280;3946;48.958;8.284;2023-04-03T08:09:24;101363.78;;;6.30;72.10
163;BME280;3946;48.958;8.284;2023-04-03T08:12:10;101379.13;;;6.33;71.63
163;BME280;3946;48.958;8.284;2023-04-03T08:14:56;101377.06;;;6.72;72.12
163;BME280;3946;48.958;8.284;2023-04-03T08:17:41;101348.94;;;6.92;70.83
163;BME280;3946;48.958;8.284;2023-04-03T08:20:26;101346.47;;;6.89;70.43
163;BME280;3946;48.958;8.284;2023-04-03T08:23:11;101343.34;;;6.80;70.22
163;BME280;3946;48.958;8.284;2023-04-03T08:25:56;101364.47;;;6.63;70.56
163;BME280;3946;48.958;8.284;2023-04-03T08:28:42;101350.81;;;6.87;69.64
163;BME280;3946;48.958;8.284;2023-04-03T08:31:27;101337.44;;;6.76;69.59
163;BME280;3946;48.958;8.284;2023-04-03T08:34:12;101353.69;;;7.05;70.37
163;BME280;3946;48.958;8.284;2023-04-03T08:36:58;101340.03;;;7.52;69.46
163;BME280;3946;48.958;8.284;2023-04-03T08:39:43;101321.94;;;7.29;68.00
163;BME280;3946;48.958;8.284;2023-04-03T08:42:32;101301.47;;;7.24;67.15
163;BME280;3946;48.958;8.284;2023-04-03T08:45:25;101305.75;;;7.49;67.00
163;BME280;3946;48.958;8.284;2023-04-03T08:48:12;101320.53;;;7.45;67.46
163;BME280;3946;48.958;8.284;2023-04-03T08:50:59;101303.47;;;7.64;66.50
163;BME280;3946;48.958;8.284;2023-04-03T08:53:46;101332.47;;;7.23;67.66
163;BME280;3946;48.958;8.284;2023-04-03T08:56:36;101331.38;;;7.03;67.44
163;BME280;3946;48.958;8.284;2023-04-03T08:59:24;101333.84;;;6.82;67.73
163;BME280;3946;48.958;8.284;2023-04-03T09:02:17;101315.75;;;6.83;67.39
163;BME280;3946;48.958;8.284;2023-04-03T09:05:09;101331.09;;;7.13;67.89
163;BME280;3946;48.958;8.284;2023-04-03T09:07:59;101319.06;;;7.13;66.65
163;BME280;3946;48.958;8.284;2023-04-03T09:10:46;101306.88;;;7.17;66.16
163;BME280;3946;48.958;8.284;2023-04-03T09:13:33;101295.47;;;7.72;65.65
163;BME280;3946;48.958;8.284;2023-04-03T09:16:25;101298.75;;;7.52;65.96
163;BME280;3946;48.958;8.284;2023-04-03T09:19:18;101287.44;;;7.56;65.41
163;BME280;3946;48.958;8.284;2023-04-03T09:22:11;101260.94;;;7.53;64.59
163;BME280;3946;48.958;8.284;2023-04-03T09:24:58;101298.22;;;7.44;65.90
163;BME280;3946;48.958;8.284;2023-04-03T09:27:44;101305.75;;;7.49;65.71
163;BME280;3946;48.958;8.284;2023-04-03T09:30:29;101293.78;;;7.23;65.58
163;BME280;3946;48.958;8.284;2023-04-03T09:33:14;101296.72;;;7.37;65.92
163;BME280;3946;48.958;8.284;2023-04-03T09:36:02;101283.91;;;7.59;64.78
163;BME280;3946;48.958;8.284;2023-04-03T09:38:57;101298.44;;;7.61;65.60
163;BME280;3946;48.958;8.284;2023-04-03T09:41:57;101255.59;;;7.57;64.12
163;BME280;3946;48.958;8.284;2023-04-03T09:44:44;101269.94;;;7.64;63.92
163;BME280;3946;48.958;8.284;2023-04-03T09:47:37;101271.63;;;7.42;63.90
163;BME280;3946;48.958;8.284;2023-04-03T09:50:22;101288.56;;;7.49;64.34
163;BME280;3946;48.958;8.284;2023-04-03T09:53:24;101267.25;;;7.67;63.84
163;BME280;3946;48.958;8.284;2023-04-03T09:56:18;101238.34;;;7.36;62.62
163;BME280;3946;48.958;8.284;2023-04-03T09:59:07;101264.84;;;7.40;62.98
163;BME280;3946;48.958;8.284;2023-04-03T10:01:57;101260.81;;;8.01;63.46
163;BME280;3946;48.958;8.284;2023-04-03T10:04:43;101243.50;;;8.26;62.72
163;BME280;3946;48.958;8.284;2023-04-03T10:07:29;101180.03;;;8.63;60.21
163;BME280;3946;48.958;8.284;2023-04-03T10:10:17;101139.75;;;8.98;57.81
163;BME280;3946;48.958;8.284;2023-04-03T10:13:04;101094.63;;;9.05;55.94
163;BME280;3946;48.958;8.284;2023-04-03T10:15:51;101078.34;;;9.03;55.29
163;BME280;3946;48.958;8.284;2023-04-03T10:18:40;101115.72;;;8.96;56.46
163;BME280;3946;48.958;8.284;2023-04-03T10:21:29;101103.13;;;8.69;56.38
163;BME280;3946;48.958;8.284;2023-04-03T10:24:18;101053.22;;;8.49;54.22
163;BME280;3946;48.958;8.284;2023-04-03T10:27:08;101061.09;;;8.46;54.68
163;BME280;3946;48.958;8.284;2023-04-03T10:29:58;101096.09;;;8.32;55.45
163;BME280;3946;48.958;8.284;2023-04-03T10:32:47;101069.47;;;8.30;54.03
163;BME280;3946;48.958;8.284;2023-04-03T10:35:39;101077.19;;;8.52;53.93
163;BME280;3946;48.958;8.284;2023-04-03T10:38:30;101044.56;;;8.50;53.66
163;BME280;3946;48.958;8.284;2023-04-03T10:41:17;101081.03;;;8.62;54.18
163;BME280;3946;48.958;8.284;2023-04-03T10:44:10;101045.19;;;8.75;52.90
163;BME280;3946;48.958;8.284;2023-04-03T10:46:58;101047.19;;;8.68;53.38
163;BME280;3946;48.958;8.284;2023-04-03T10:49:49;101047.59;;;8.97;53.21
163;BME280;3946;48.958;8.284;2023-04-03T10:52:37;100991.50;;;9.18;51.03
163;BME280;3946;48.958;8.284;2023-04-03T10:55:26;100991.84;;;9.10;50.94
163;BME280;3946;48.958;8.284;2023-04-03T10:58:18;101014.91;;;8.96;51.63
163;BME280;3946;48.958;8.284;2023-04-03T11:01:07;101012.84;;;9.04;51.19
163;BME280;3946;48.958;8.284;2023-04-03T11:03:54;101050.41;;;9.47;52.44
163;BME280;3946;48.958;8.284;2023-04-03T11:06:41;100993.28;;;9.52;50.24
163;BME280;3946;48.958;8.284;2023-04-03T11:09:28;101024.19;;;9.55;51.62
163;BME280;3946;48.958;8.284;2023-04-03T11:12:17;101029.97;;;9.94;51.75
163;BME280;3946;48.958;8.284;2023-04-03T11:15:04;100944.84;;;10.05;48.42
163;BME280;3946;48.958;8.284;2023-04-03T11:17:51;100921.75;;;10.18;47.28
163;BME280;3946;48.958;8.284;2023-04-03T11:20:40;100957.56;;;10.59;48.37
163;BME280;3946;48.958;8.284;2023-04-03T11:23:28;100926.91;;;10.35;47.42
163;BME280;3946;48.958;8.284;2023-04-03T11:26:16;100937.50;;;10.31;47.50
163;BME280;3946;48.958;8.284;2023-04-03T11:29:02;100947.88;;;10.13;48.14
163;BME280;3946;48.958;8.284;2023-04-03T11:31:57;100972.28;;;9.75;49.26
163;BME280;3946;48.958;8.284;2023-04-03T11:34:49;100959.25;;;9.76;48.62
163;BME280;3946;48.958;8.284;2023-04-03T11:37:38;100983.19;;;9.11;49.56
163;BME280;3946;48.958;8.284;2023-04-03T11:40:25;101008.06;;;9.13;50.85
163;BME280;3946;48.958;8.284;2023-04-03T11:43:18;101001.69;;;9.21;50.05
163;BME280;3946;48.958;8.284;2023-04-03T11:46:05;100986.78;;;9.08;49.70
163;BME280;3946;48.958;8.284;2023-04-03T11:48:51;100984.50;;;9.20;49.77
163;BME280;3946;48.958;8.284;2023-04-03T11:51:39;101014.56;;;9.22;50.88
163;BME280;3946;48.958;8.284;2023-04-03T11:54:44;101029.16;;;9.23;51.21
163;BME280;3946;48.958;8.284;2023-04-03T12:00:47;100999.47;;;9.13;50.03
163;BME280;3946;48.958;8.284;2023-04-03T12:12:56;100989.97;;;8.95;50.13
163;BME280;3946;48.958;8.284;2023-04-03T12:15:50;100998.81;;;9.27;50.49
163;BME280;3946;48.958;8.284;2023-04-03T12:18:41;101042.66;;;8.92;52.18
163;BME280;3946;48.958;8.284;2023-04-03T12:24:43;101049.63;;;8.71;52.70
163;BME280;3946;48.958;8.284;2023-04-03T12:27:30;101030.34;;;8.97;51.53
163;BME280;3946;48.958;8.284;2023-04-03T12:30:21;101027.00;;;8.95;51.34
163;BME280;3946;48.958;8.284;2023-04-03T12:33:17;100979.50;;;9.34;49.70
163;BME280;3946;48.958;8.284;2023-04-03T12:36:05;100968.59;;;9.27;49.42
163;BME280;3946;48.958;8.284;2023-04-03T12:38:59;100967.88;;;9.25;49.72
163;BME280;3946;48.958;8.284;2023-04-03T12:41:49;101010.53;;;9.34;50.67
163;BME280;3946;48.958;8.284;2023-04-03T12:44:40;100995.03;;;8.79;50.22
163;BME280;3946;48.958;8.284;2023-04-03T12:47:32;101013.53;;;8.70;51.18
163;BME280;3946;48.958;8.284;2023-04-03T12:50:21;101026.09;;;8.59;51.48
163;BME280;3946;48.958;8.284;2023-04-03T12:53:11;101038.09;;;8.78;52.51
163;BME280;3946;48.958;8.284;2023-04-03T12:56:18;101016.75;;;8.75;51.46
163;BME280;3946;48.958;8.284;2023-04-03T12:59:13;101027.78;;;8.78;51.66
163;BME280;3946;48.958;8.284;2023-04-03T13:02:00;101033.72;;;8.81;52.16
163;BME280;3946;48.958;8.284;2023-04-03T13:04:46;101053.19;;;8.69;53.28
163;BME280;3946;48.958;8.284;2023-04-03T13:07:32;101077.53;;;8.63;53.66
163;BME280;3946;48.958;8.284;2023-04-03T13:10:18;101096.09;;;9.29;55.02
163;BME280;3946;48.958;8.284;2023-04-03T13:13:06;101046.47;;;9.40;52.86
163;BME280;3946;48.958;8.284;2023-04-03T13:15:52;101010.13;;;8.69;51.92
163;BME280;3946;48.958;8.284;2023-04-03T13:18:38;101028.59;;;8.41;52.09
163;BME280;3946;48.958;8.284;2023-04-03T13:21:25;101030.75;;;8.51;52.84
163;BME280;3946;48.958;8.284;2023-04-03T13:24:11;101043.53;;;8.54;52.86
163;BME280;3946;48.958;8.284;2023-04-03T13:26:56;101040.47;;;8.64;52.55
163;BME280;3946;48.958;8.284;2023-04-03T13:29:42;101003.69;;;8.40;52.01
163;BME280;3946;48.958;8.284;2023-04-03T13:32:30;101099.97;;;8.82;54.47
163;BME280;3946;48.958;8.284;2023-04-03T13:35:26;101134.94;;;8.90;55.94
163;BME280;3946;48.958;8.284;2023-04-03T13:38:23;101080.88;;;9.23;53.83
163;BME280;3946;48.958;8.284;2023-04-03T13:41:21;101012.41;;;8.94;51.65
163;BME280;3946;48.958;8.284;2023-04-03T13:44:22;101014.91;;;8.77;51.67
163;BME280;3946;48.958;8.284;2023-04-03T13:47:14;101028.28;;;8.87;51.78
163;BME280;3946;48.958;8.284;2023-04-03T13:50:00;100996.84;;;8.77;50.63
163;BME280;3946;48.958;8.284;2023-04-03T13:52:47;101005.16;;;8.65;51.39
163;BME280;3946;48.958;8.284;2023-04-03T13:55:34;100990.22;;;8.90;51.00
163;BME280;3946;48.958;8.284;2023-04-03T13:58:21;100935.56;;;8.98;49.02
163;BME280;3946;48.958;8.284;2023-04-03T14:01:08;100931.06;;;8.84;48.66
163;BME280;3946;48.958;8.284;2023-04-03T14:03:54;100934.84;;;9.30;48.23
163;BME280;3946;48.958;8.284;2023-04-03T14:06:40;100915.31;;;9.42;48.05
163;BME280;3946;48.958;8.284;2023-04-03T14:09:25;100936.53;;;9.48;48.44
163;BME280;3946;48.958;8.284;2023-04-03T14:12:13;100908.94;;;10.15;47.55
163;BME280;3946;48.958;8.284;2023-04-03T14:15:00;100906.28;;;9.83;47.58
163;BME280;3946;48.958;8.284;2023-04-03T14:17:46;100930.59;;;9.64;47.88
163;BME280;3946;48.958;8.284;2023-04-03T14:20:31;100937.50;;;9.46;48.61
163;BME280;3946;48.958;8.284;2023-04-03T14:23:16;100913.94;;;9.18;48.09
163;BME280;3946;48.958;8.284;2023-04-03T14:26:01;100947.75;;;9.13;49.22
163;BME280;3946;48.958;8.284;2023-04-03T14:28:49;100945.22;;;8.94;48.95
163;BME280;3946;48.958;8.284;2023-04-03T14:31:34;100933.66;;;8.84;48.65
163;BME280;3946;48.958;8.284;2023-04-03T14:34:19;100961.44;;;8.79;50.07
163;BME280;3946;48.958;8.284;2023-04-03T14:37:05;100959.56;;;8.83;49.65
163;BME280;3946;48.958;8.284;2023-04-03T14:39:54;100965.59;;;9.00;49.89
163;BME280;3946;48.958;8.284;2023-04-03T14:42:39;100990.41;;;9.04;50.88
163;BME280;3946;48.958;8.284;2023-04-03T14:45:25;101015.47;;;9.02;51.84
163;BME280;3946;48.958;8.284;2023-04-03T14:48:11;101031.13;;;8.81;52.45
163;BME280;3946;48.958;8.284;2023-04-03T14:51:00;101038.25;;;8.94;53.11
163;BME280;3946;48.958;8.284;2023-04-03T14:53:45;101035.19;;;8.86;53.02
163;BME280;3946;48.958;8.284;2023-04-03T14:56:30;101012.91;;;8.84;52.40
163;BME280;3946;48.958;8.284;2023-04-03T14:59:15;101012.63;;;8.90;53.09
163;BME280;3946;48.958;8.284;2023-04-03T15:02:02;101019.31;;;8.94;52.73
163;BME280;3946;48.958;8.284;2023-04-03T15:04:50;101015.00;;;8.94;52.58
163;BME280;3946;48.958;8.284;2023-04-03T15:07:36;101020.31;;;8.91;53.03
163;BME280;3946;48.958;8.284;2023-04-03T15:10:22;101025.69;;;8.68;52.46
163;BME280;3946;48.958;8.284;2023-04-03T15:13:07;100982.34;;;8.56;51.48
163;BME280;3946;48.958;8.284;2023-04-03T15:15:53;100999.84;;;8.68;52.00
163;BME280;3946;48.958;8.284;2023-04-03T15:18:40;100978.63;;;8.61;50.98
163;BME280;3946;48.958;8.284;2023-04-03T15:21:25;100979.06;;;8.71;51.28
163;BME280;3946;48.958;8.284;2023-04-03T15:24:10;100965.94;;;8.57;50.85
163;BME280;3946;48.958;8.284;2023-04-03T15:26:56;100958.44;;;8.51;50.62
163;BME280;3946;48.958;8.284;2023-04-03T15:29:41;100958.38;;;8.52;50.30
163;BME280;3946;48.958;8.284;2023-04-03T15:32:26;100946.00;;;8.77;49.81
163;BME280;3946;48.958;8.284;2023-04-03T15:35:13;100942.16;;;8.86;49.93
163;BME280;3946;48.958;8.284;2023-04-03T15:38:00;100903.31;;;9.24;48.72